createdAt,value
2018-04-28T00:02:50.743Z,98.00
2018-04-28T00:06:55.039Z,97.60
2018-04-28T00:10:57.655Z,97.60
2018-04-28T00:15:00.175Z,97.90
2018-04-28T00:19:06.331Z,97.50
2018-04-28T00:23:11.365Z,97.40
2018-04-28T00:32:00.616Z,97.00
2018-04-28T00:36:08.859Z,97.70
2018-04-28T00:40:23.047Z,97.50
2018-04-28T00:44:25.940Z,97.50
2018-04-28T00:48:30.094Z,97.90
2018-04-28T00:52:33.579Z,97.90
2018-04-28T00:56:36.093Z,98.30
2018-04-28T01:00:56.531Z,98.40
2018-04-28T01:04:59.190Z,97.80
2018-04-28T01:09:01.730Z,98.20
2018-04-28T01:13:08.100Z,98.70
2018-04-28T01:17:25.646Z,98.20
2018-04-28T01:21:37.763Z,98.20
2018-04-28T01:25:57.394Z,98.30
2018-04-28T01:34:37.163Z,98.80
2018-04-28T01:38:40.390Z,99.00
2018-04-28T01:47:23.660Z,98.50
2018-04-28T01:51:32.194Z,98.60
2018-04-28T01:55:50.399Z,98.90
2018-04-28T02:00:00.795Z,98.40
2018-04-28T02:04:14.823Z,98.70
2018-04-28T02:08:17.542Z,98.90
2018-04-28T02:12:31.711Z,98.80
2018-04-28T02:16:37.950Z,98.60
2018-04-28T02:20:52.283Z,99.00
2018-04-28T02:25:16.134Z,99.30
2018-04-28T02:29:22.003Z,99.30
2018-04-28T02:33:25.325Z,99.50
2018-04-28T02:42:04.286Z,99.00
2018-04-28T02:46:09.407Z,99.50
2018-04-28T02:50:21.763Z,99.10
2018-04-28T02:54:26.070Z,99.00
2018-04-28T02:58:34.179Z,98.60
2018-04-28T03:02:40.223Z,98.40
2018-04-28T03:11:13.275Z,98.50
2018-04-28T03:15:16.942Z,98.70
2018-04-28T03:19:20.214Z,98.60
2018-04-28T03:23:27.383Z,98.60
2018-04-28T03:32:10.092Z,98.40
2018-04-28T03:36:14.283Z,98.30
2018-04-28T03:40:16.814Z,98.30
2018-04-28T03:49:11.234Z,98.40
2018-04-28T03:53:32.275Z,98.40
2018-04-28T03:57:47.528Z,98.40
2018-04-28T04:02:01.826Z,98.40
2018-04-28T04:06:09.644Z,98.00
2018-04-28T04:10:29.826Z,98.00
2018-04-28T04:19:38.152Z,97.80
2018-04-28T04:23:52.451Z,97.80
2018-04-28T04:32:31.367Z,97.60
2018-04-28T04:36:49.290Z,97.30
2018-04-28T04:40:58.670Z,97.00
2018-04-28T04:45:07.932Z,97.00
2018-04-28T04:49:19.497Z,96.80
2018-04-28T04:58:05.318Z,96.60
2018-04-28T05:02:30.234Z,96.20
2018-04-28T05:06:51.271Z,95.90
2018-04-28T05:11:16.238Z,96.00
2018-04-28T05:15:35.153Z,96.00
2018-04-28T05:19:44.502Z,95.50
2018-04-28T05:24:13.626Z,95.50
2018-04-28T05:28:27.975Z,95.30
2018-04-28T05:37:20.867Z,94.80
2018-04-28T05:41:36.172Z,95.10
2018-04-28T05:46:00.251Z,94.80
2018-04-28T05:50:28.130Z,94.80
2018-04-28T05:59:36.046Z,95.00
2018-04-28T06:08:41.031Z,94.70
2018-04-28T06:12:48.099Z,94.50
2018-04-28T06:21:33.094Z,94.50
2018-04-28T06:25:35.730Z,94.30
2018-04-28T06:29:38.262Z,93.90
2018-04-28T06:33:41.582Z,93.70
2018-04-28T06:37:44.143Z,93.70
2018-04-28T06:41:46.823Z,93.90
2018-04-28T06:45:49.341Z,93.50
2018-04-28T06:49:51.882Z,93.80
2018-04-28T06:53:54.398Z,92.70
2018-04-28T06:57:57.271Z,92.80
2018-04-28T07:01:59.777Z,89.60
2018-04-28T07:06:03.431Z,87.10
2018-04-28T07:10:06.098Z,82.80
2018-04-28T07:14:11.913Z,74.40
2018-04-28T07:18:17.579Z,72.10
2018-04-28T07:22:20.121Z,67.30
2018-04-28T07:26:23.639Z,66.80
2018-04-28T07:30:40.703Z,62.10
2018-04-28T07:34:43.419Z,63.30
2018-04-28T07:38:50.927Z,58.90
2018-04-28T07:42:53.446Z,58.50
2018-04-28T07:46:56.750Z,56.00
2018-04-28T07:51:02.254Z,56.50
2018-04-28T07:55:10.367Z,53.50
2018-04-28T07:59:12.887Z,53.50
2018-04-28T08:03:19.015Z,54.90
2018-04-28T08:07:22.466Z,53.00
2018-04-28T08:11:25.185Z,49.40
2018-04-28T08:15:28.159Z,52.40
2018-04-28T08:19:30.831Z,52.10
2018-04-28T08:23:33.353Z,51.50
2018-04-28T08:27:36.790Z,51.60
2018-04-28T08:31:39.322Z,51.50
2018-04-28T08:35:46.270Z,45.10
2018-04-28T08:39:57.011Z,53.20
2018-04-28T08:43:59.659Z,55.50
2018-04-28T08:48:02.182Z,54.70
2018-04-28T08:52:04.726Z,50.40
2018-04-28T08:56:07.390Z,48.60
2018-04-28T09:00:21.778Z,48.30
2018-04-28T09:04:28.346Z,45.70
2018-04-28T09:08:30.899Z,49.00
2018-04-28T09:12:35.402Z,50.20
2018-04-28T09:16:37.961Z,47.60
2018-04-28T09:20:41.265Z,44.70
2018-04-28T09:24:45.808Z,44.60
2018-04-28T09:28:48.322Z,43.70
2018-04-28T09:32:50.866Z,45.40
2018-04-28T09:36:53.471Z,48.30
2018-04-28T09:40:56.861Z,58.90
2018-04-28T09:44:59.384Z,59.20
2018-04-28T09:49:11.779Z,56.00
2018-04-28T09:53:16.569Z,53.80
2018-04-28T09:57:19.123Z,55.00
2018-04-28T10:01:21.643Z,60.10
2018-04-28T10:05:24.193Z,58.30
2018-04-28T10:09:27.470Z,58.20
2018-04-28T10:13:47.453Z,57.60
2018-04-28T10:17:49.987Z,57.60
2018-04-28T10:21:52.535Z,57.00
2018-04-28T10:25:55.052Z,59.90
2018-04-28T10:30:08.387Z,61.20
2018-04-28T10:34:14.462Z,61.50
2018-04-28T10:38:17.007Z,59.70
2018-04-28T10:42:19.551Z,56.60
2018-04-28T10:46:22.443Z,60.40
2018-04-28T10:50:30.885Z,62.90
2018-04-28T10:54:34.428Z,62.80
2018-04-28T10:58:37.731Z,63.60
2018-04-28T11:02:40.453Z,63.30
2018-04-28T11:06:52.710Z,64.10
2018-04-28T11:10:56.027Z,56.80
2018-04-28T11:14:59.310Z,61.10
2018-04-28T11:19:03.167Z,61.10
2018-04-28T11:23:05.675Z,60.70
2018-04-28T11:27:08.235Z,61.40
2018-04-28T11:31:10.747Z,60.50
2018-04-28T11:35:13.286Z,59.40
2018-04-28T11:39:15.810Z,59.40
2018-04-28T11:43:19.121Z,59.50
2018-04-28T11:47:22.403Z,60.10
2018-04-28T11:51:25.035Z,59.90
2018-04-28T11:55:37.511Z,60.70
2018-04-28T11:59:41.216Z,61.00
2018-04-28T12:03:43.739Z,61.00
2018-04-28T12:07:50.659Z,60.10
2018-04-28T12:11:53.196Z,60.20
2018-04-28T12:16:00.035Z,59.00
2018-04-28T12:20:02.550Z,58.00
2018-04-28T12:24:05.958Z,56.50
2018-04-28T12:28:08.467Z,57.00
2018-04-28T12:32:11.093Z,59.60
2018-04-28T12:36:14.375Z,57.10
2018-04-28T12:40:16.931Z,57.10
2018-04-28T12:44:20.215Z,57.20
2018-04-28T12:48:23.088Z,57.20
2018-04-28T12:52:25.658Z,57.80
2018-04-28T12:56:28.300Z,57.80
2018-04-28T13:00:30.820Z,59.80
2018-04-28T13:04:33.368Z,59.00
2018-04-28T13:08:35.922Z,57.30
2018-04-28T13:12:38.464Z,58.50
2018-04-28T13:16:40.983Z,57.50
2018-04-28T13:20:51.150Z,58.30
2018-04-28T13:24:53.663Z,58.20
2018-04-28T13:28:56.214Z,57.10
2018-04-28T13:32:59.487Z,61.10
2018-04-28T13:37:02.329Z,61.10
2018-04-28T13:41:04.870Z,67.20
2018-04-28T13:45:10.911Z,60.00
2018-04-28T13:49:13.431Z,62.30
2018-04-28T13:53:17.026Z,63.00
2018-04-28T13:57:19.543Z,63.00
2018-04-28T14:01:29.610Z,58.50
2018-04-28T14:05:32.122Z,64.10
2018-04-28T14:09:53.742Z,61.30
2018-04-28T14:13:57.179Z,61.40
2018-04-28T14:18:00.512Z,59.50
2018-04-28T14:22:03.036Z,59.50
2018-04-28T14:26:05.617Z,64.30
2018-04-28T14:30:08.144Z,64.00
2018-04-28T14:34:17.731Z,64.90
2018-04-28T14:38:26.723Z,61.60
2018-04-28T14:42:40.144Z,63.30
2018-04-28T14:47:05.917Z,65.10
2018-04-28T14:51:09.557Z,67.00
2018-04-28T14:55:12.867Z,65.10
2018-04-28T14:59:16.275Z,62.70
2018-04-28T15:03:23.767Z,62.60
2018-04-28T15:07:29.909Z,64.60
2018-04-28T15:11:33.207Z,66.20
2018-04-28T15:15:35.839Z,66.40
2018-04-28T15:19:39.126Z,64.20
2018-04-28T15:23:41.773Z,64.20
2018-04-28T15:27:45.064Z,63.60
2018-04-28T15:31:47.635Z,63.60
2018-04-28T15:35:50.230Z,64.50
2018-04-28T15:39:52.795Z,67.30
2018-04-28T15:43:55.324Z,63.50
2018-04-28T15:47:58.656Z,64.90
2018-04-28T15:52:01.957Z,65.40
2018-04-28T15:56:04.561Z,65.40
2018-04-28T16:00:09.097Z,65.80
2018-04-28T16:04:35.520Z,68.30
2018-04-28T16:08:38.059Z,66.40
2018-04-28T16:12:40.695Z,65.10
2018-04-28T16:16:46.534Z,67.60
2018-04-28T16:20:49.080Z,67.20
2018-04-28T16:24:51.600Z,68.80
2018-04-28T16:28:55.255Z,66.20
2018-04-28T16:32:57.860Z,70.60
2018-04-28T16:37:02.454Z,71.50
2018-04-28T16:41:08.615Z,69.80
2018-04-28T16:45:12.105Z,68.10
2018-04-28T16:49:16.972Z,70.90
2018-04-28T16:53:20.297Z,72.40
2018-04-28T16:57:23.622Z,69.10
2018-04-28T17:01:26.946Z,71.30
2018-04-28T17:05:30.598Z,72.80
2018-04-28T17:09:34.110Z,72.70
2018-04-28T17:13:37.388Z,76.40
2018-04-28T17:17:53.210Z,76.40
2018-04-28T17:21:55.742Z,79.60
2018-04-28T17:25:58.445Z,79.00
2018-04-28T17:30:01.120Z,79.70
2018-04-28T17:34:03.746Z,85.00
2018-04-28T17:38:06.267Z,88.80
2018-04-28T17:42:08.862Z,91.00
2018-04-28T17:46:12.368Z,91.20
2018-04-28T17:50:14.932Z,91.50
2018-04-28T17:54:17.507Z,93.10
2018-04-28T17:58:20.368Z,92.00
2018-04-28T18:02:22.924Z,92.90
2018-04-28T18:06:25.503Z,93.90
2018-04-28T18:10:30.115Z,93.70
2018-04-28T18:14:32.775Z,90.00
2018-04-28T18:18:39.637Z,92.40
2018-04-28T18:22:51.693Z,92.00
2018-04-28T18:27:00.485Z,92.00
2018-04-28T18:31:03.164Z,93.30
2018-04-28T18:35:05.889Z,93.70
2018-04-28T18:39:10.302Z,93.20
2018-04-28T18:43:13.869Z,93.00
2018-04-28T18:47:16.899Z,92.90
2018-04-28T18:51:22.597Z,93.60
2018-04-28T18:55:26.676Z,94.10
2018-04-28T18:59:29.571Z,94.10
2018-04-28T19:03:32.170Z,94.80
2018-04-28T19:07:36.714Z,93.70
2018-04-28T19:11:40.670Z,93.70
2018-04-28T19:15:43.354Z,95.70
2018-04-28T19:19:46.985Z,95.80
2018-04-28T19:23:53.783Z,95.80
2018-04-28T19:27:56.883Z,95.60
2018-04-28T19:31:59.680Z,94.10
2018-04-28T19:36:02.624Z,97.20
2018-04-28T19:40:06.319Z,97.70
2018-04-28T19:44:12.238Z,98.60
2018-04-28T19:48:14.818Z,98.80
2018-04-28T19:52:23.171Z,98.50
2018-04-28T19:56:25.812Z,97.70
2018-04-28T20:00:29.758Z,97.70
2018-04-28T20:04:32.338Z,97.80
2018-04-28T20:08:34.931Z,97.40
2018-04-28T20:12:38.525Z,97.70
2018-04-28T20:16:41.844Z,96.60
2018-04-28T20:20:44.536Z,97.90
2018-04-28T20:24:58.894Z,98.20
2018-04-28T20:29:02.480Z,98.70
2018-04-28T20:33:06.103Z,99.50
2018-04-28T20:37:08.692Z,98.80
2018-04-28T20:41:15.370Z,97.60
2018-04-28T20:45:18.000Z,97.60
2018-04-28T20:49:21.662Z,98.00
2018-04-28T20:53:24.244Z,98.10
2018-04-28T20:57:27.215Z,97.80
2018-04-28T21:01:29.815Z,98.70
2018-04-28T21:05:37.004Z,99.10
2018-04-28T21:09:39.624Z,99.40
2018-04-28T21:13:42.196Z,99.60
2018-04-28T21:17:45.520Z,99.30
2018-04-28T21:21:50.191Z,99.70
2018-04-28T21:25:53.512Z,99.90
2018-04-28T21:29:56.135Z,99.90
2018-04-28T21:33:59.908Z,99.90
2018-04-28T21:38:02.749Z,99.50
2018-04-28T21:42:05.287Z,99.60
2018-04-28T21:46:08.868Z,99.80
2018-04-28T21:50:11.383Z,99.90
2018-04-28T21:54:14.008Z,99.90
2018-04-28T21:58:17.324Z,99.90
2018-04-28T22:02:20.256Z,99.90
2018-04-28T22:06:23.546Z,99.40
2018-04-28T22:10:26.148Z,99.40
2018-04-28T22:14:32.935Z,99.90
2018-04-28T22:18:40.904Z,99.90
2018-04-28T22:22:43.418Z,99.50
2018-04-28T22:26:46.054Z,99.90
2018-04-28T22:30:48.568Z,99.90
2018-04-28T22:34:57.179Z,99.90
2018-04-28T22:38:59.694Z,99.90
2018-04-28T22:43:02.344Z,99.90
2018-04-28T22:47:04.858Z,99.90
2018-04-28T22:51:07.508Z,99.90
2018-04-28T22:55:10.794Z,99.70
2018-04-28T22:59:13.458Z,99.70
2018-04-28T23:03:15.963Z,99.50
2018-04-28T23:07:28.223Z,99.90
2018-04-28T23:11:30.749Z,99.90
2018-04-28T23:15:36.778Z,99.90
2018-04-28T23:19:47.274Z,99.90
2018-04-28T23:23:49.840Z,99.90
2018-04-28T23:27:52.347Z,99.90
2018-04-28T23:31:54.882Z,99.90
2018-04-28T23:35:58.171Z,99.90
2018-04-28T23:40:00.719Z,99.90
2018-04-28T23:44:09.581Z,99.90
2018-04-28T23:48:12.227Z,99.90
2018-04-28T23:52:14.745Z,99.90
2018-04-28T23:56:17.411Z,99.90
